createdAt,value
2023-05-22T00:00:17.697Z,73.40
2023-05-22T00:02:22.710Z,73.60
2023-05-22T00:04:27.423Z,74.06
2023-05-22T00:06:32.051Z,74.27
2023-05-22T00:08:36.690Z,74.59
2023-05-22T00:10:41.511Z,74.92
2023-05-22T00:12:46.384Z,75.12
2023-05-22T00:14:51.046Z,75.65
2023-05-22T00:16:55.893Z,75.79
2023-05-22T00:19:00.637Z,75.98
2023-05-22T00:21:05.585Z,76.22
2023-05-22T00:23:10.824Z,76.22
2023-05-22T00:25:18.453Z,76.24
2023-05-22T00:27:23.114Z,76.55
2023-05-22T00:29:27.812Z,76.56
2023-05-22T00:31:32.576Z,76.89
2023-05-22T00:33:37.329Z,77.18
2023-05-22T00:35:42.004Z,77.16
2023-05-22T00:37:46.684Z,77.21
2023-05-22T00:39:51.497Z,77.25
2023-05-22T00:41:56.367Z,77.47
2023-05-22T00:44:01.298Z,77.71
2023-05-22T00:46:06.476Z,78.00
2023-05-22T00:48:12.181Z,77.95
2023-05-22T00:50:17.894Z,78.35
2023-05-22T00:52:23.918Z,78.28
2023-05-22T00:54:29.047Z,78.49
2023-05-22T00:56:33.986Z,78.59
2023-05-22T00:58:38.697Z,78.69
2023-05-22T01:00:43.788Z,78.92
2023-05-22T01:04:35.984Z,79.34
2023-05-22T01:06:41.252Z,79.56
2023-05-22T01:08:46.455Z,79.73
2023-05-22T01:10:57.117Z,79.81
2023-05-22T01:13:09.399Z,79.78
2023-05-22T01:15:24.628Z,79.98
2023-05-22T01:17:40.151Z,79.99
2023-05-22T01:19:57.113Z,80.21
2023-05-22T01:22:13.018Z,80.39
2023-05-22T01:24:47.949Z,80.47
2023-05-22T01:27:17.364Z,80.57
2023-05-22T01:29:38.474Z,80.54
2023-05-22T01:31:45.775Z,80.79
2023-05-22T01:33:54.960Z,80.93
2023-05-22T01:36:02.620Z,81.04
2023-05-22T01:38:09.113Z,81.26
2023-05-22T01:40:16.018Z,81.31
2023-05-22T01:42:21.364Z,81.34
2023-05-22T01:44:26.512Z,81.45
2023-05-22T01:46:33.695Z,81.70
2023-05-22T01:48:38.884Z,81.77
2023-05-22T01:50:44.746Z,81.95
2023-05-22T01:52:59.392Z,82.04
2023-05-22T01:55:10.023Z,82.24
2023-05-22T01:57:21.285Z,82.43
2023-05-22T01:59:33.071Z,82.68
2023-05-22T02:01:39.642Z,82.74
2023-05-22T02:03:45.895Z,82.99
2023-05-22T02:05:58.797Z,83.13
2023-05-22T02:08:06.506Z,83.16
2023-05-22T02:10:13.417Z,83.05
2023-05-22T02:12:20.108Z,83.25
2023-05-22T02:14:27.805Z,83.22
2023-05-22T02:16:33.058Z,83.47
2023-05-22T02:18:38.098Z,83.51
2023-05-22T02:20:43.164Z,83.52
2023-05-22T02:22:48.816Z,83.93
2023-05-22T02:24:53.864Z,84.10
2023-05-22T02:26:59.014Z,84.20
2023-05-22T02:29:03.991Z,84.46
2023-05-22T02:31:09.046Z,84.86
2023-05-22T02:33:14.072Z,85.07
2023-05-22T02:35:19.751Z,85.12
2023-05-22T02:37:24.733Z,85.35
2023-05-22T02:39:30.072Z,85.33
2023-05-22T02:41:35.222Z,85.45
2023-05-22T02:43:40.855Z,85.53
2023-05-22T02:45:45.951Z,85.95
2023-05-22T02:47:51.332Z,85.86
2023-05-22T02:49:56.547Z,86.06
2023-05-22T02:52:02.187Z,86.16
2023-05-22T02:54:07.386Z,86.31
2023-05-22T02:56:12.520Z,86.12
2023-05-22T02:58:17.793Z,86.17
2023-05-22T03:00:23.629Z,86.20
2023-05-22T03:02:29.188Z,86.04
2023-05-22T03:04:34.443Z,86.26
2023-05-22T03:06:41.080Z,86.51
2023-05-22T03:08:46.186Z,86.61
2023-05-22T03:10:51.881Z,86.78
2023-05-22T03:12:57.139Z,86.76
2023-05-22T03:15:03.388Z,86.84
2023-05-22T03:17:08.769Z,86.77
2023-05-22T03:19:15.187Z,86.81
2023-05-22T03:21:20.629Z,86.93
2023-05-22T03:23:25.672Z,87.02
2023-05-22T03:25:31.203Z,86.95
2023-05-22T03:27:38.201Z,87.04
2023-05-22T03:29:44.101Z,87.64
2023-05-22T03:31:49.627Z,87.30
2023-05-22T03:34:03.730Z,87.10
2023-05-22T03:36:09.715Z,87.47
2023-05-22T03:38:15.054Z,87.47
2023-05-22T03:40:20.699Z,87.71
2023-05-22T03:42:26.454Z,87.68
2023-05-22T03:44:34.242Z,87.56
2023-05-22T03:46:39.385Z,87.54
2023-05-22T03:48:44.502Z,87.51
2023-05-22T03:50:50.548Z,87.62
2023-05-22T03:52:55.801Z,87.56
2023-05-22T03:55:01.298Z,87.37
2023-05-22T03:57:07.254Z,87.21
2023-05-22T03:59:14.344Z,87.32
2023-05-22T04:01:19.391Z,87.41
2023-05-22T04:03:24.449Z,87.62
2023-05-22T04:05:29.860Z,87.33
2023-05-22T04:07:34.915Z,87.36
2023-05-22T04:09:40.232Z,87.26
2023-05-22T04:11:45.250Z,87.46
2023-05-22T04:13:51.149Z,87.36
2023-05-22T04:15:56.451Z,87.37
2023-05-22T04:18:02.820Z,87.28
2023-05-22T04:20:09.704Z,87.10
2023-05-22T04:22:14.849Z,87.07
2023-05-22T04:24:21.931Z,86.91
2023-05-22T04:26:26.966Z,87.15
2023-05-22T04:28:31.871Z,86.97
2023-05-22T04:30:37.070Z,86.69
2023-05-22T04:32:42.495Z,86.71
2023-05-22T04:34:49.145Z,86.67
2023-05-22T04:36:54.281Z,86.36
2023-05-22T04:38:59.147Z,85.83
2023-05-22T04:41:04.023Z,84.93
2023-05-22T04:43:09.072Z,84.81
2023-05-22T04:45:14.236Z,84.78
2023-05-22T04:47:19.505Z,84.67
2023-05-22T04:49:24.329Z,84.57
2023-05-22T04:51:29.453Z,84.40
2023-05-22T04:53:34.537Z,84.12
2023-05-22T04:55:39.495Z,84.08
2023-05-22T04:57:44.677Z,83.87
2023-05-22T04:59:49.732Z,83.69
2023-05-22T05:01:54.578Z,83.43
2023-05-22T05:03:59.355Z,82.95
2023-05-22T05:06:05.782Z,82.59
2023-05-22T05:08:10.748Z,82.47
2023-05-22T05:10:15.624Z,82.23
2023-05-22T05:12:20.696Z,82.02
2023-05-22T05:14:28.965Z,81.69
2023-05-22T05:16:34.025Z,81.61
2023-05-22T05:18:38.891Z,81.26
2023-05-22T05:20:44.430Z,80.86
2023-05-22T05:22:49.393Z,80.69
2023-05-22T05:24:55.785Z,80.42
2023-05-22T05:27:00.894Z,80.23
2023-05-22T05:29:05.805Z,79.75
2023-05-22T05:31:16.452Z,79.56
2023-05-22T05:33:44.062Z,79.08
2023-05-22T05:35:53.836Z,79.24
2023-05-22T05:38:02.410Z,78.73
2023-05-22T05:40:09.751Z,78.84
2023-05-22T05:42:22.060Z,78.81
2023-05-22T05:44:27.356Z,78.62
2023-05-22T05:46:32.425Z,78.22
2023-05-22T05:48:38.002Z,78.07
2023-05-22T05:50:43.305Z,77.86
2023-05-22T05:52:48.449Z,76.94
2023-05-22T05:54:55.737Z,76.83
2023-05-22T05:57:01.023Z,76.27
2023-05-22T05:59:09.625Z,76.58
2023-05-22T06:01:14.456Z,76.33
2023-05-22T06:03:19.751Z,75.89
2023-05-22T06:05:30.115Z,75.59
2023-05-22T06:07:43.467Z,75.03
2023-05-22T06:09:48.788Z,75.67
2023-05-22T06:11:58.508Z,75.54
2023-05-22T06:14:04.927Z,75.28
2023-05-22T06:16:09.954Z,74.58
2023-05-22T06:18:17.998Z,73.14
2023-05-22T06:20:23.151Z,72.38
2023-05-22T06:22:31.104Z,72.10
2023-05-22T06:24:36.148Z,72.65
2023-05-22T06:26:44.984Z,72.30
2023-05-22T06:28:50.242Z,71.85
2023-05-22T06:30:56.290Z,69.65
2023-05-22T06:33:01.527Z,70.37
2023-05-22T06:35:07.571Z,70.40
2023-05-22T06:37:13.010Z,69.60
2023-05-22T06:39:21.099Z,69.09
2023-05-22T06:41:44.163Z,68.77
2023-05-22T06:43:50.074Z,68.12
2023-05-22T06:46:00.173Z,68.37
2023-05-22T06:48:16.819Z,67.27
2023-05-22T06:50:36.584Z,67.06
2023-05-22T06:52:41.711Z,66.97
2023-05-22T06:54:47.589Z,66.50
2023-05-22T06:56:52.954Z,65.74
2023-05-22T06:58:58.065Z,65.80
2023-05-22T07:01:14.570Z,65.85
2023-05-22T07:03:25.765Z,64.13
2023-05-22T07:06:02.785Z,64.52
2023-05-22T07:08:12.165Z,64.78
2023-05-22T07:10:17.185Z,64.60
2023-05-22T07:12:22.209Z,64.43
2023-05-22T07:14:30.916Z,63.98
2023-05-22T07:16:35.942Z,63.07
2023-05-22T07:18:41.835Z,62.87
2023-05-22T07:20:46.735Z,62.94
2023-05-22T07:22:54.042Z,63.18
2023-05-22T07:24:59.550Z,61.98
2023-05-22T07:27:08.029Z,62.80
2023-05-22T07:29:13.804Z,63.09
2023-05-22T07:31:18.724Z,63.18
2023-05-22T07:33:24.094Z,62.69
2023-05-22T07:35:32.446Z,62.43
2023-05-22T07:37:37.910Z,62.36
2023-05-22T07:39:43.131Z,61.61
2023-05-22T07:41:50.834Z,60.38
2023-05-22T07:43:55.958Z,60.17
2023-05-22T07:46:04.879Z,60.99
2023-05-22T07:48:13.575Z,61.28
2023-05-22T07:50:18.683Z,61.08
2023-05-22T07:52:24.037Z,62.15
2023-05-22T07:54:29.144Z,62.72
2023-05-22T07:56:34.253Z,62.69
2023-05-22T07:58:39.503Z,62.10
2023-05-22T08:00:44.494Z,61.81
2023-05-22T08:02:49.470Z,61.38
2023-05-22T08:04:54.600Z,60.77
2023-05-22T08:06:59.576Z,60.27
2023-05-22T08:09:05.175Z,59.92
2023-05-22T08:11:10.515Z,59.39
2023-05-22T08:13:15.776Z,59.28
2023-05-22T08:15:20.871Z,60.14
2023-05-22T08:17:26.033Z,60.39
2023-05-22T08:19:31.033Z,60.60
2023-05-22T08:21:36.058Z,60.33
2023-05-22T08:23:41.066Z,60.14
2023-05-22T08:25:46.042Z,59.68
2023-05-22T08:27:50.882Z,59.53
2023-05-22T08:29:56.112Z,59.19
2023-05-22T08:32:04.429Z,58.54
2023-05-22T08:34:09.370Z,57.79
2023-05-22T08:36:14.428Z,56.08
2023-05-22T08:38:19.444Z,55.34
2023-05-22T08:40:31.631Z,55.68
2023-05-22T08:42:36.468Z,55.70
2023-05-22T08:44:41.583Z,55.00
2023-05-22T08:46:46.621Z,55.56
2023-05-22T08:48:52.218Z,55.59
2023-05-22T08:51:02.300Z,55.37
2023-05-22T08:53:11.696Z,55.29
2023-05-22T08:55:17.261Z,54.52
2023-05-22T08:57:23.362Z,54.83
2023-05-22T08:59:29.981Z,53.59
2023-05-22T09:01:35.137Z,53.84
2023-05-22T09:03:40.865Z,54.73
2023-05-22T09:05:45.936Z,55.09
2023-05-22T09:07:50.837Z,55.29
2023-05-22T09:09:55.804Z,55.33
2023-05-22T09:12:01.232Z,54.78
2023-05-22T09:14:12.312Z,53.33
2023-05-22T09:16:17.546Z,52.59
2023-05-22T09:18:24.553Z,53.38
2023-05-22T09:20:35.717Z,52.05
2023-05-22T09:22:43.362Z,52.68
2023-05-22T09:24:51.254Z,52.52
2023-05-22T09:27:02.769Z,53.79
2023-05-22T09:29:08.466Z,54.28
2023-05-22T09:31:16.814Z,54.11
2023-05-22T09:33:22.678Z,53.88
2023-05-22T09:35:31.252Z,54.48
2023-05-22T09:37:37.314Z,54.65
2023-05-22T09:39:43.397Z,54.90
2023-05-22T09:41:48.270Z,55.02
2023-05-22T09:43:53.235Z,55.39
2023-05-22T09:46:03.158Z,55.32
2023-05-22T09:48:09.150Z,54.87
2023-05-22T09:50:14.187Z,54.59
2023-05-22T09:52:20.499Z,54.52
2023-05-22T09:54:27.892Z,53.66
2023-05-22T09:56:39.867Z,53.03
2023-05-22T09:58:47.098Z,52.62
2023-05-22T10:00:53.058Z,52.47
2023-05-22T10:03:02.438Z,53.09
2023-05-22T10:05:09.520Z,53.89
2023-05-22T10:07:16.208Z,53.50
2023-05-22T10:09:24.766Z,53.44
2023-05-22T10:11:31.936Z,53.17
2023-05-22T10:13:37.114Z,53.24
2023-05-22T10:15:42.116Z,52.05
2023-05-22T10:17:47.578Z,52.63
2023-05-22T10:19:53.909Z,52.02
2023-05-22T10:22:00.486Z,51.64
2023-05-22T10:24:06.016Z,51.50
2023-05-22T10:26:11.953Z,50.98
2023-05-22T10:28:26.171Z,50.72
2023-05-22T10:30:39.819Z,50.65
2023-05-22T10:33:04.433Z,50.12
2023-05-22T10:35:18.169Z,50.79
2023-05-22T10:37:41.101Z,50.66
2023-05-22T10:40:00.928Z,49.78
2023-05-22T10:42:11.482Z,49.67
2023-05-22T10:44:17.456Z,50.50
2023-05-22T10:46:22.398Z,49.90
2023-05-22T10:48:27.823Z,48.87
2023-05-22T10:50:36.326Z,49.51
2023-05-22T10:52:41.637Z,49.40
2023-05-22T10:54:47.548Z,49.41
2023-05-22T10:57:09.744Z,49.72
2023-05-22T10:59:14.875Z,49.40
2023-05-22T11:01:20.905Z,49.87
2023-05-22T11:03:30.344Z,48.36
2023-05-22T11:05:39.194Z,47.55
2023-05-22T11:07:44.550Z,46.75
2023-05-22T11:09:49.606Z,47.44
2023-05-22T11:12:17.985Z,48.31
2023-05-22T11:14:25.775Z,48.78
2023-05-22T11:16:34.521Z,48.55
2023-05-22T11:18:39.756Z,47.80
2023-05-22T11:20:46.680Z,47.32
2023-05-22T11:22:57.043Z,47.62
2023-05-22T11:25:06.741Z,46.95
2023-05-22T11:27:11.839Z,46.57
2023-05-22T11:29:17.892Z,45.80
2023-05-22T11:31:23.461Z,46.24
2023-05-22T11:33:28.723Z,45.39
2023-05-22T11:35:34.022Z,45.95
2023-05-22T11:37:41.639Z,45.14
2023-05-22T11:39:51.381Z,44.30
2023-05-22T11:41:56.415Z,43.71
2023-05-22T11:44:01.700Z,43.25
2023-05-22T11:46:09.874Z,41.77
2023-05-22T11:48:15.677Z,42.57
2023-05-22T11:50:33.245Z,43.47
2023-05-22T11:52:46.039Z,42.43
2023-05-22T11:54:52.119Z,40.84
2023-05-22T11:56:57.500Z,42.49
2023-05-22T11:59:03.174Z,41.53
2023-05-22T12:01:08.667Z,41.96
2023-05-22T12:03:14.567Z,41.92
2023-05-22T12:05:22.188Z,41.88
2023-05-22T12:07:28.654Z,41.99
2023-05-22T12:09:34.020Z,41.50
2023-05-22T12:11:39.604Z,41.44
2023-05-22T12:13:45.047Z,40.57
2023-05-22T12:15:50.607Z,40.07
2023-05-22T12:17:58.162Z,39.57
2023-05-22T12:20:03.602Z,39.22
2023-05-22T12:22:08.712Z,37.68
2023-05-22T12:24:13.737Z,38.64
2023-05-22T12:26:19.329Z,38.47
2023-05-22T12:28:24.203Z,38.75
2023-05-22T12:32:48.970Z,38.14
2023-05-22T12:34:57.999Z,38.77
2023-05-22T12:37:02.968Z,38.07
2023-05-22T12:39:11.028Z,37.69
2023-05-22T12:41:15.843Z,39.04
2023-05-22T12:43:20.938Z,39.09
2023-05-22T12:45:25.937Z,39.24
2023-05-22T12:47:31.165Z,38.34
2023-05-22T12:49:36.179Z,38.27
2023-05-22T12:51:41.200Z,38.67
2023-05-22T12:53:46.170Z,39.18
2023-05-22T12:55:51.115Z,39.48
2023-05-22T12:57:56.274Z,39.08
2023-05-22T13:00:01.235Z,39.11
2023-05-22T13:02:06.817Z,39.26
2023-05-22T13:04:11.807Z,39.18
2023-05-22T13:06:19.684Z,39.20
2023-05-22T13:08:24.606Z,38.68
2023-05-22T13:10:29.554Z,37.76
2023-05-22T13:12:34.596Z,38.70
2023-05-22T13:14:42.384Z,37.65
2023-05-22T13:16:47.664Z,37.58
2023-05-22T13:18:52.798Z,37.86
2023-05-22T13:20:57.882Z,37.81
2023-05-22T13:23:02.835Z,38.19
2023-05-22T13:25:08.835Z,38.72
2023-05-22T13:27:16.276Z,39.08
2023-05-22T13:29:24.029Z,38.85
2023-05-22T13:31:29.218Z,38.18
2023-05-22T13:33:34.359Z,38.91
2023-05-22T13:35:39.556Z,39.26
2023-05-22T13:37:45.168Z,38.96
2023-05-22T13:39:50.328Z,38.81
2023-05-22T13:41:55.513Z,38.63
2023-05-22T13:44:00.613Z,38.34
2023-05-22T13:46:05.732Z,38.46
2023-05-22T13:48:11.627Z,38.68
2023-05-22T13:50:16.941Z,38.15
2023-05-22T13:52:22.042Z,38.06
2023-05-22T13:54:27.365Z,38.48
2023-05-22T13:56:32.458Z,38.22
2023-05-22T13:58:37.308Z,38.07
2023-05-22T14:00:42.234Z,38.20
2023-05-22T14:02:48.277Z,38.87
2023-05-22T14:04:54.272Z,38.55
2023-05-22T14:06:59.451Z,38.77
2023-05-22T14:09:04.549Z,38.40
2023-05-22T14:11:09.898Z,38.46
2023-05-22T14:13:15.607Z,39.20
2023-05-22T14:15:20.604Z,38.56
2023-05-22T14:17:26.047Z,37.94
2023-05-22T14:19:31.227Z,38.29
2023-05-22T14:21:36.465Z,38.23
2023-05-22T14:23:41.884Z,38.40
2023-05-22T14:25:47.070Z,38.63
2023-05-22T14:27:52.382Z,38.69
2023-05-22T14:29:57.465Z,38.45
2023-05-22T14:32:05.417Z,38.05
2023-05-22T14:34:10.348Z,37.73
2023-05-22T14:36:15.338Z,37.63
2023-05-22T14:38:20.474Z,37.84
2023-05-22T14:40:25.370Z,37.98
2023-05-22T14:42:30.412Z,37.79
2023-05-22T14:44:35.571Z,38.15
2023-05-22T14:46:40.721Z,37.73
2023-05-22T14:48:45.845Z,38.33
2023-05-22T14:50:50.772Z,38.62
2023-05-22T14:52:55.785Z,39.11
2023-05-22T14:55:00.734Z,39.19
2023-05-22T14:57:06.120Z,39.09
2023-05-22T14:59:11.167Z,38.92
2023-05-22T15:01:16.219Z,39.01
2023-05-22T15:03:21.306Z,38.92
2023-05-22T15:05:26.446Z,38.88
2023-05-22T15:07:43.053Z,38.61
2023-05-22T15:09:50.168Z,38.79
2023-05-22T15:11:55.112Z,38.79
2023-05-22T15:14:00.053Z,38.87
2023-05-22T15:16:05.489Z,38.95
2023-05-22T15:18:10.590Z,38.88
2023-05-22T15:20:15.735Z,38.40
2023-05-22T15:22:20.585Z,38.41
2023-05-22T15:24:25.567Z,38.18
2023-05-22T15:26:30.473Z,38.09
2023-05-22T15:28:35.483Z,37.97
2023-05-22T15:30:40.455Z,38.17
2023-05-22T15:32:45.644Z,38.23
2023-05-22T15:34:50.755Z,38.42
2023-05-22T15:36:55.784Z,39.00
2023-05-22T15:39:00.935Z,39.09
2023-05-22T15:41:07.036Z,38.96
2023-05-22T15:43:12.114Z,38.80
2023-05-22T15:45:17.011Z,38.93
2023-05-22T15:47:22.200Z,38.99
2023-05-22T15:49:30.130Z,38.96
2023-05-22T15:51:36.047Z,39.10
2023-05-22T15:53:41.142Z,38.99
2023-05-22T15:55:46.185Z,39.01
2023-05-22T15:57:51.115Z,38.99
2023-05-22T15:59:56.014Z,39.33
2023-05-22T16:02:00.938Z,39.04
2023-05-22T16:04:05.841Z,39.13
2023-05-22T16:06:10.906Z,39.12
2023-05-22T16:08:16.704Z,39.00
2023-05-22T16:10:21.782Z,38.96
2023-05-22T16:12:26.815Z,39.21
2023-05-22T16:14:31.692Z,39.35
2023-05-22T16:16:36.702Z,39.68
2023-05-22T16:18:41.964Z,39.88
2023-05-22T16:20:47.017Z,39.70
2023-05-22T16:22:52.130Z,40.30
2023-05-22T16:24:57.125Z,40.34
2023-05-22T16:27:02.027Z,40.77
2023-05-22T16:29:08.172Z,41.09
2023-05-22T16:31:13.079Z,41.24
2023-05-22T16:33:18.102Z,41.56
2023-05-22T16:35:23.567Z,41.69
2023-05-22T16:37:28.467Z,41.88
2023-05-22T16:39:33.457Z,42.11
2023-05-22T16:41:39.174Z,42.17
2023-05-22T16:43:44.138Z,42.61
2023-05-22T16:45:49.137Z,42.58
2023-05-22T16:47:55.959Z,42.49
2023-05-22T16:50:01.493Z,41.80
2023-05-22T16:52:06.790Z,41.58
2023-05-22T16:54:11.744Z,41.28
2023-05-22T16:56:16.781Z,41.10
2023-05-22T16:58:21.841Z,40.45
2023-05-22T17:00:26.990Z,40.40
2023-05-22T17:02:32.140Z,40.59
2023-05-22T17:04:37.096Z,40.45
2023-05-22T17:06:42.147Z,40.20
2023-05-22T17:08:47.124Z,40.25
2023-05-22T17:10:52.313Z,40.07
2023-05-22T17:12:57.312Z,40.21
2023-05-22T17:15:02.194Z,40.05
2023-05-22T17:17:07.106Z,40.08
2023-05-22T17:19:12.140Z,40.11
2023-05-22T17:21:17.096Z,40.34
2023-05-22T17:23:22.072Z,40.81
2023-05-22T17:25:27.508Z,41.29
2023-05-22T17:27:36.200Z,41.59
2023-05-22T17:29:41.698Z,42.16
2023-05-22T17:31:46.673Z,42.61
2023-05-22T17:33:51.697Z,42.89
2023-05-22T17:35:57.477Z,43.36
2023-05-22T17:38:02.485Z,43.77
2023-05-22T17:40:09.667Z,44.05
2023-05-22T17:42:14.825Z,44.38
2023-05-22T17:44:19.829Z,44.44
2023-05-22T17:46:24.934Z,44.76
2023-05-22T17:48:29.885Z,45.19
2023-05-22T17:50:34.857Z,45.34
2023-05-22T17:52:40.258Z,45.53
2023-05-22T17:54:46.225Z,45.49
2023-05-22T17:56:51.163Z,45.73
2023-05-22T17:58:59.089Z,45.76
2023-05-22T18:01:04.205Z,46.18
2023-05-22T18:03:09.411Z,46.25
2023-05-22T18:05:14.541Z,46.65
2023-05-22T18:07:19.394Z,46.73
2023-05-22T18:09:24.342Z,46.88
2023-05-22T18:11:31.385Z,47.23
2023-05-22T18:13:37.305Z,47.24
2023-05-22T18:15:42.441Z,47.45
2023-05-22T18:17:47.573Z,47.61
2023-05-22T18:19:52.557Z,48.12
2023-05-22T18:21:57.610Z,48.42
2023-05-22T18:24:02.724Z,48.61
2023-05-22T18:26:07.848Z,48.78
2023-05-22T18:28:12.739Z,49.19
2023-05-22T18:30:18.297Z,49.46
2023-05-22T18:32:23.215Z,49.93
2023-05-22T18:34:28.242Z,50.19
2023-05-22T18:36:33.184Z,50.36
2023-05-22T18:38:37.983Z,50.62
2023-05-22T18:40:43.090Z,50.96
2023-05-22T18:42:48.051Z,51.11
2023-05-22T18:44:52.996Z,51.28
2023-05-22T18:46:58.128Z,51.58
2023-05-22T18:49:03.862Z,51.69
2023-05-22T18:51:17.816Z,51.75
2023-05-22T18:53:23.794Z,52.00
2023-05-22T18:55:28.826Z,52.10
2023-05-22T18:57:33.765Z,52.30
2023-05-22T18:59:38.824Z,52.68
2023-05-22T19:01:44.998Z,52.73
2023-05-22T19:03:49.920Z,52.98
2023-05-22T19:05:54.801Z,53.25
2023-05-22T19:07:59.704Z,53.42
2023-05-22T19:10:07.774Z,53.57
2023-05-22T19:12:13.194Z,53.81
2023-05-22T19:14:18.091Z,54.07
2023-05-22T19:16:23.047Z,54.23
2023-05-22T19:18:28.408Z,54.48
2023-05-22T19:20:33.798Z,54.74
2023-05-22T19:22:39.736Z,54.87
2023-05-22T19:24:45.088Z,55.07
2023-05-22T19:26:50.201Z,55.22
2023-05-22T19:28:55.143Z,55.41
2023-05-22T19:31:00.592Z,55.67
2023-05-22T19:33:07.952Z,55.90
2023-05-22T19:35:13.998Z,56.28
2023-05-22T19:37:19.097Z,56.60
2023-05-22T19:39:24.285Z,57.01
2023-05-22T19:41:29.246Z,57.16
2023-05-22T19:43:34.244Z,57.36
2023-05-22T19:45:39.457Z,57.63
2023-05-22T19:47:44.539Z,57.68
2023-05-22T19:49:49.634Z,57.98
2023-05-22T19:51:56.117Z,58.09
2023-05-22T19:54:01.362Z,58.39
2023-05-22T19:56:06.290Z,58.73
2023-05-22T19:58:11.246Z,59.01
2023-05-22T20:00:17.459Z,59.24
2023-05-22T20:02:22.481Z,59.63
2023-05-22T20:04:27.409Z,59.74
2023-05-22T20:06:32.252Z,60.06
2023-05-22T20:08:37.106Z,60.24
2023-05-22T20:10:42.189Z,60.40
2023-05-22T20:12:47.189Z,60.78
2023-05-22T20:14:52.114Z,60.91
2023-05-22T20:16:57.068Z,61.10
2023-05-22T20:19:01.939Z,61.18
2023-05-22T20:21:06.951Z,61.51
2023-05-22T20:23:11.802Z,61.76
2023-05-22T20:25:16.651Z,61.99
2023-05-22T20:27:21.701Z,62.23
2023-05-22T20:29:26.595Z,62.63
2023-05-22T20:31:31.570Z,62.78
2023-05-22T20:33:36.482Z,63.24
2023-05-22T20:35:41.747Z,63.67
2023-05-22T20:37:46.905Z,63.71
2023-05-22T20:39:51.810Z,64.02
2023-05-22T20:41:56.852Z,64.38
2023-05-22T20:44:02.011Z,64.39
2023-05-22T20:46:07.068Z,64.63
2023-05-22T20:48:12.102Z,64.98
2023-05-22T20:50:17.259Z,65.34
2023-05-22T20:52:22.116Z,65.49
2023-05-22T20:54:27.111Z,65.63
2023-05-22T20:56:32.072Z,65.83
2023-05-22T20:58:39.117Z,66.18
2023-05-22T21:00:44.149Z,66.42
2023-05-22T21:02:49.212Z,66.40
2023-05-22T21:04:54.298Z,66.48
2023-05-22T21:06:59.306Z,66.51
2023-05-22T21:09:04.491Z,66.61
2023-05-22T21:11:09.851Z,66.52
2023-05-22T21:13:14.796Z,66.21
2023-05-22T21:15:19.612Z,66.40
2023-05-22T21:17:24.849Z,66.45
2023-05-22T21:19:30.064Z,66.46
2023-05-22T21:21:34.997Z,66.41
2023-05-22T21:23:39.965Z,66.24
2023-05-22T21:25:44.914Z,66.30
2023-05-22T21:27:49.845Z,66.46
2023-05-22T21:29:54.730Z,66.38
2023-05-22T21:31:59.648Z,66.37
2023-05-22T21:34:04.527Z,66.28
2023-05-22T21:36:09.699Z,66.44
2023-05-22T21:38:14.614Z,66.29
2023-05-22T21:40:19.779Z,66.37
2023-05-22T21:42:26.240Z,66.58
2023-05-22T21:44:31.300Z,66.80
2023-05-22T21:46:36.426Z,66.81
2023-05-22T21:48:41.404Z,66.99
2023-05-22T21:50:46.294Z,67.09
2023-05-22T21:52:51.165Z,67.11
2023-05-22T21:54:56.261Z,67.30
2023-05-22T21:57:01.204Z,67.35
2023-05-22T21:59:06.171Z,67.42
2023-05-22T22:01:11.122Z,67.47
2023-05-22T22:03:16.204Z,67.62
2023-05-22T22:05:21.279Z,67.71
2023-05-22T22:07:27.396Z,67.85
2023-05-22T22:09:32.579Z,68.10
2023-05-22T22:11:37.664Z,68.46
2023-05-22T22:13:42.640Z,68.64
2023-05-22T22:15:47.723Z,68.66
2023-05-22T22:17:52.779Z,68.78
2023-05-22T22:19:57.701Z,69.04
2023-05-22T22:22:05.881Z,69.33
2023-05-22T22:24:10.865Z,69.50
2023-05-22T22:26:17.052Z,69.80
2023-05-22T22:28:24.767Z,69.90
2023-05-22T22:30:29.974Z,70.11
2023-05-22T22:32:34.868Z,70.34
2023-05-22T22:34:39.950Z,70.58
2023-05-22T22:36:44.867Z,71.07
2023-05-22T22:38:49.881Z,71.11
2023-05-22T22:40:54.878Z,71.28
2023-05-22T22:42:59.733Z,71.58
2023-05-22T22:45:05.207Z,71.68
2023-05-22T22:47:10.244Z,71.76
2023-05-22T22:49:17.843Z,72.00
2023-05-22T22:51:22.907Z,72.16
2023-05-22T22:53:27.851Z,72.53
2023-05-22T22:55:32.852Z,72.86
2023-05-22T22:57:37.951Z,72.94
2023-05-22T22:59:42.981Z,73.04
2023-05-22T23:01:48.357Z,73.24
2023-05-22T23:03:53.622Z,73.37
2023-05-22T23:05:58.783Z,73.53
2023-05-22T23:08:03.632Z,73.39
2023-05-22T23:10:10.392Z,73.72
2023-05-22T23:12:15.541Z,73.64
2023-05-22T23:14:20.495Z,73.78
2023-05-22T23:16:25.405Z,73.66
2023-05-22T23:18:30.512Z,73.97
2023-05-22T23:20:35.424Z,74.08
2023-05-22T23:22:40.584Z,74.13
2023-05-22T23:24:45.547Z,74.19
2023-05-22T23:26:50.516Z,74.19
2023-05-22T23:28:55.752Z,74.05
2023-05-22T23:31:00.757Z,74.29
2023-05-22T23:33:05.852Z,74.26
2023-05-22T23:35:11.251Z,74.54
2023-05-22T23:37:16.292Z,74.89
2023-05-22T23:39:21.317Z,75.16
2023-05-22T23:41:26.360Z,75.13
2023-05-22T23:43:31.288Z,75.08
2023-05-22T23:45:36.307Z,75.25
2023-05-22T23:47:44.019Z,75.28
2023-05-22T23:49:48.932Z,75.42
2023-05-22T23:51:53.974Z,75.54
2023-05-22T23:53:58.949Z,75.26
2023-05-22T23:56:03.956Z,75.12
2023-05-22T23:58:08.948Z,74.89
